TDO weather

Ed Carlson Memorial Field South Lewis County Airport
Toledo, Washington, United States

Public forecast

Using degrees Fahrenheit for public forecast. Weather courtesy of forecast.io.

METAR (pilot weather report)

Closest report is Chehalis Centralia Airport, 14.0 nm (26.0 km) NNW. Retrieved 2019/05/24 05:35 UTC (0 seconds ago):

KCLS 240535Z AUTO 23004KT 10SM CLR 12/10 A2995 RMK AO2

TAF (pilot weather forecast)

Forecast is more than 12 hours old.

Closest forecast is Olympia Regional Airport, 29.8 nm (55.2 km) N. Retrieved 2019/05/23 00:22 UTC (1 day ago):

TAF KOLM 232320Z 2400/2424 30004KT P6SM SCT040 SCT200 FM240500 21006KT P6SM SCT120 SCT200 FM241000 21010KT P6SM BKN015 OVC025 FM242000 21012KT P6SM BKN020 BKN030